sensor_id;sensor_type;location;lat;lon;timestamp;pressure;altitude;pressure_sealevel;temperature;humidity
83896;BME280;74045;42.812;74.638;2024-03-08T00:00:28;91157.00;;;2.16;59.59
83896;BME280;74045;42.812;74.638;2024-03-08T00:02:53;91151.66;;;2.09;59.45
83896;BME280;74045;42.812;74.638;2024-03-08T00:05:20;91056.25;;;1.55;59.27
83896;BME280;74045;42.812;74.638;2024-03-08T00:07:46;91141.25;;;2.09;59.27
83896;BME280;74045;42.812;74.638;2024-03-08T00:10:12;91167.44;;;2.16;59.39
83896;BME280;74045;42.812;74.638;2024-03-08T00:12:43;91153.19;;;2.10;59.47
83896;BME280;74045;42.812;74.638;2024-03-08T00:17:36;91157.94;;;2.05;59.95
83896;BME280;74045;42.812;74.638;2024-03-08T00:20:03;91155.25;;;2.01;59.35
83896;BME280;74045;42.812;74.638;2024-03-08T00:22:34;91161.56;;;2.00;59.73
83896;BME280;74045;42.812;74.638;2024-03-08T00:25:01;91154.16;;;2.02;59.69
83896;BME280;74045;42.812;74.638;2024-03-08T00:27:28;91154.16;;;2.02;59.59
83896;BME280;74045;42.812;74.638;2024-03-08T00:29:56;91147.44;;;2.01;59.91
83896;BME280;74045;42.812;74.638;2024-03-08T00:32:22;91155.72;;;2.07;59.81
83896;BME280;74045;42.812;74.638;2024-03-08T00:34:49;91157.63;;;2.10;59.87
83896;BME280;74045;42.812;74.638;2024-03-08T00:37:17;91149.19;;;2.16;59.62
83896;BME280;74045;42.812;74.638;2024-03-08T00:39:43;91083.34;;;1.73;59.80
83896;BME280;74045;42.812;74.638;2024-03-08T00:42:09;91127.06;;;2.07;59.61
83896;BME280;74045;42.812;74.638;2024-03-08T00:44:35;91168.59;;;2.19;59.07
83896;BME280;74045;42.812;74.638;2024-03-08T00:47:00;91136.44;;;2.11;59.62
83896;BME280;74045;42.812;74.638;2024-03-08T00:49:27;91161.97;;;2.25;59.30
83896;BME280;74045;42.812;74.638;2024-03-08T00:51:53;91169.84;;;2.29;59.20
83896;BME280;74045;42.812;74.638;2024-03-08T00:54:19;91164.34;;;2.34;59.74
83896;BME280;74045;42.812;74.638;2024-03-08T00:56:44;91163.38;;;2.42;59.27
83896;BME280;74045;42.812;74.638;2024-03-08T00:59:11;91152.47;;;2.36;58.82
83896;BME280;74045;42.812;74.638;2024-03-08T01:01:40;91156.75;;;2.48;58.79
83896;BME280;74045;42.812;74.638;2024-03-08T01:04:06;91154.84;;;2.45;58.84
83896;BME280;74045;42.812;74.638;2024-03-08T01:06:33;91159.34;;;2.48;58.89
83896;BME280;74045;42.812;74.638;2024-03-08T01:08:59;91170.25;;;2.54;59.33
83896;BME280;74045;42.812;74.638;2024-03-08T01:11:25;91171.06;;;2.58;58.63
83896;BME280;74045;42.812;74.638;2024-03-08T01:13:53;91175.13;;;2.55;59.23
83896;BME280;74045;42.812;74.638;2024-03-08T01:16:19;91173.59;;;2.54;59.03
83896;BME280;74045;42.812;74.638;2024-03-08T01:18:46;91134.84;;;2.30;59.04
83896;BME280;74045;42.812;74.638;2024-03-08T01:21:13;91167.94;;;2.49;59.08
83896;BME280;74045;42.812;74.638;2024-03-08T01:23:39;91183.66;;;2.52;59.26
83896;BME280;74045;42.812;74.638;2024-03-08T01:26:05;91163.13;;;2.51;59.24
83896;BME280;74045;42.812;74.638;2024-03-08T01:28:31;91160.19;;;2.52;58.91
83896;BME280;74045;42.812;74.638;2024-03-08T01:30:59;91182.25;;;2.58;58.62
83896;BME280;74045;42.812;74.638;2024-03-08T01:33:26;91168.78;;;2.56;58.39
83896;BME280;74045;42.812;74.638;2024-03-08T01:35:53;91166.59;;;2.58;58.52
83896;BME280;74045;42.812;74.638;2024-03-08T01:38:19;91171.91;;;2.65;58.57
83896;BME280;74045;42.812;74.638;2024-03-08T01:40:47;91153.91;;;2.57;58.25
83896;BME280;74045;42.812;74.638;2024-03-08T01:43:25;91176.63;;;2.83;58.10
83896;BME280;74045;42.812;74.638;2024-03-08T01:45:52;91173.72;;;2.88;57.84
83896;BME280;74045;42.812;74.638;2024-03-08T01:48:19;91150.03;;;2.74;58.49
83896;BME280;74045;42.812;74.638;2024-03-08T01:50:49;91029.75;;;1.95;58.31
83896;BME280;74045;42.812;74.638;2024-03-08T01:53:17;91183.34;;;3.10;57.94
83896;BME280;74045;42.812;74.638;2024-03-08T01:55:44;91188.25;;;3.16;57.88
83896;BME280;74045;42.812;74.638;2024-03-08T01:58:12;91184.22;;;3.22;57.59
83896;BME280;74045;42.812;74.638;2024-03-08T02:00:45;91110.94;;;2.77;57.39
83896;BME280;74045;42.812;74.638;2024-03-08T02:03:12;91173.41;;;3.20;57.48
83896;BME280;74045;42.812;74.638;2024-03-08T02:05:40;91154.69;;;3.14;57.10
83896;BME280;74045;42.812;74.638;2024-03-08T02:08:07;91072.81;;;2.65;57.28
83896;BME280;74045;42.812;74.638;2024-03-08T02:10:34;91182.31;;;3.45;56.87
83896;BME280;74045;42.812;74.638;2024-03-08T02:13:03;91177.47;;;3.47;56.82
83896;BME280;74045;42.812;74.638;2024-03-08T02:15:55;91185.44;;;3.58;57.01
83896;BME280;74045;42.812;74.638;2024-03-08T02:18:22;91184.72;;;3.61;57.24
83896;BME280;74045;42.812;74.638;2024-03-08T02:20:52;91177.56;;;3.54;56.94
83896;BME280;74045;42.812;74.638;2024-03-08T02:23:21;91105.16;;;3.18;56.84
83896;BME280;74045;42.812;74.638;2024-03-08T02:25:48;91196.28;;;3.94;57.17
83896;BME280;74045;42.812;74.638;2024-03-08T02:28:14;91201.16;;;3.95;56.95
83896;BME280;74045;42.812;74.638;2024-03-08T02:30:41;91204.16;;;3.97;56.98
83896;BME280;74045;42.812;74.638;2024-03-08T02:33:07;91205.72;;;4.02;56.73
83896;BME280;74045;42.812;74.638;2024-03-08T02:35:34;91209.91;;;4.10;56.65
83896;BME280;74045;42.812;74.638;2024-03-08T02:38:01;91209.63;;;4.19;56.36
83896;BME280;74045;42.812;74.638;2024-03-08T02:40:27;91117.22;;;3.63;56.35
83896;BME280;74045;42.812;74.638;2024-03-08T02:42:52;91212.38;;;4.33;56.55
83896;BME280;74045;42.812;74.638;2024-03-08T02:45:18;91214.34;;;4.43;56.02
83896;BME280;74045;42.812;74.638;2024-03-08T02:47:44;91204.63;;;4.47;55.63
83896;BME280;74045;42.812;74.638;2024-03-08T02:50:10;91227.16;;;4.59;55.53
83896;BME280;74045;42.812;74.638;2024-03-08T02:52:37;91213.44;;;4.69;55.46
83896;BME280;74045;42.812;74.638;2024-03-08T02:55:03;91119.94;;;4.15;55.76
83896;BME280;74045;42.812;74.638;2024-03-08T02:57:31;91219.53;;;4.84;54.96
83896;BME280;74045;42.812;74.638;2024-03-08T02:59:57;91210.91;;;4.84;54.87
83896;BME280;74045;42.812;74.638;2024-03-08T03:02:25;91217.72;;;4.92;55.17
83896;BME280;74045;42.812;74.638;2024-03-08T03:04:52;91218.53;;;5.00;54.93
83896;BME280;74045;42.812;74.638;2024-03-08T03:07:18;91232.44;;;5.11;54.54
83896;BME280;74045;42.812;74.638;2024-03-08T03:09:44;91223.84;;;5.10;54.53
83896;BME280;74045;42.812;74.638;2024-03-08T03:12:10;91231.31;;;5.12;54.43
83896;BME280;74045;42.812;74.638;2024-03-08T03:14:36;91229.09;;;5.18;54.30
83896;BME280;74045;42.812;74.638;2024-03-08T03:17:05;91229.16;;;5.25;53.94
83896;BME280;74045;42.812;74.638;2024-03-08T03:19:30;91241.19;;;5.33;54.14
83896;BME280;74045;42.812;74.638;2024-03-08T03:21:56;91166.88;;;4.93;54.23
83896;BME280;74045;42.812;74.638;2024-03-08T03:24:22;91240.47;;;5.39;53.72
83896;BME280;74045;42.812;74.638;2024-03-08T03:26:49;91245.03;;;5.50;54.49
83896;BME280;74045;42.812;74.638;2024-03-08T03:29:16;91234.53;;;5.46;54.10
83896;BME280;74045;42.812;74.638;2024-03-08T03:31:42;91230.00;;;5.43;53.87
83896;BME280;74045;42.812;74.638;2024-03-08T03:34:13;91251.47;;;5.63;53.78
83896;BME280;74045;42.812;74.638;2024-03-08T03:36:41;91230.84;;;5.58;53.87
83896;BME280;74045;42.812;74.638;2024-03-08T03:39:11;91162.91;;;5.21;53.27
83896;BME280;74045;42.812;74.638;2024-03-08T03:41:44;91226.44;;;5.73;53.78
83896;BME280;74045;42.812;74.638;2024-03-08T03:44:11;91245.25;;;5.93;53.89
83896;BME280;74045;42.812;74.638;2024-03-08T03:46:37;91248.69;;;6.00;53.27
83896;BME280;74045;42.812;74.638;2024-03-08T03:49:09;91243.84;;;6.06;53.85
83896;BME280;74045;42.812;74.638;2024-03-08T03:51:35;91202.53;;;5.89;53.34
83896;BME280;74045;42.812;74.638;2024-03-08T03:54:01;91236.34;;;6.15;53.02
83896;BME280;74045;42.812;74.638;2024-03-08T03:56:29;91255.53;;;6.41;52.71
83896;BME280;74045;42.812;74.638;2024-03-08T03:58:56;91213.19;;;6.32;52.69
83896;BME280;74045;42.812;74.638;2024-03-08T04:01:22;91248.09;;;6.57;52.64
83896;BME280;74045;42.812;74.638;2024-03-08T04:03:47;91161.44;;;6.11;51.90
83896;BME280;74045;42.812;74.638;2024-03-08T04:06:13;91249.63;;;6.90;51.99
83896;BME280;74045;42.812;74.638;2024-03-08T04:08:40;91157.72;;;6.44;52.18
83896;BME280;74045;42.812;74.638;2024-03-08T04:11:06;91234.63;;;6.98;52.13
83896;BME280;74045;42.812;74.638;2024-03-08T04:13:31;91244.75;;;7.10;51.85
83896;BME280;74045;42.812;74.638;2024-03-08T04:15:57;91249.25;;;7.10;51.94
83896;BME280;74045;42.812;74.638;2024-03-08T04:18:23;91239.88;;;7.12;52.16
83896;BME280;74045;42.812;74.638;2024-03-08T04:20:48;91250.75;;;7.18;52.23
83896;BME280;74045;42.812;74.638;2024-03-08T04:23:15;91253.75;;;7.27;52.19
83896;BME280;74045;42.812;74.638;2024-03-08T04:25:41;91236.88;;;7.32;51.78
83896;BME280;74045;42.812;74.638;2024-03-08T04:28:08;91242.13;;;7.35;51.67
83896;BME280;74045;42.812;74.638;2024-03-08T04:30:39;91248.50;;;7.34;51.77
83896;BME280;74045;42.812;74.638;2024-03-08T04:33:05;91245.50;;;7.43;51.29
83896;BME280;74045;42.812;74.638;2024-03-08T04:35:34;91219.22;;;7.32;51.67
83896;BME280;74045;42.812;74.638;2024-03-08T04:37:59;91231.97;;;7.45;51.25
83896;BME280;74045;42.812;74.638;2024-03-08T04:40:25;91222.22;;;7.45;50.89
83896;BME280;74045;42.812;74.638;2024-03-08T04:42:51;91135.94;;;6.97;50.97
83896;BME280;74045;42.812;74.638;2024-03-08T04:45:17;91249.56;;;7.73;50.98
83896;BME280;74045;42.812;74.638;2024-03-08T04:47:43;91238.69;;;7.71;50.81
83896;BME280;74045;42.812;74.638;2024-03-08T04:50:09;91238.28;;;7.72;50.83
83896;BME280;74045;42.812;74.638;2024-03-08T04:52:36;91170.44;;;7.28;50.73
83896;BME280;74045;42.812;74.638;2024-03-08T04:55:02;91234.91;;;7.79;51.01
83896;BME280;74045;42.812;74.638;2024-03-08T04:57:31;91231.16;;;7.76;51.41
83896;BME280;74045;42.812;74.638;2024-03-08T04:59:57;91219.13;;;7.75;51.22
83896;BME280;74045;42.812;74.638;2024-03-08T05:02:24;91232.28;;;7.79;51.18
83896;BME280;74045;42.812;74.638;2024-03-08T05:04:50;91217.28;;;7.58;50.34
83896;BME280;74045;42.812;74.638;2024-03-08T05:07:16;91228.53;;;7.69;50.90
83896;BME280;74045;42.812;74.638;2024-03-08T05:09:42;91225.94;;;7.66;51.11
83896;BME280;74045;42.812;74.638;2024-03-08T05:12:07;91224.44;;;7.65;51.28
83896;BME280;74045;42.812;74.638;2024-03-08T05:14:33;91211.66;;;7.63;51.87
83896;BME280;74045;42.812;74.638;2024-03-08T05:17:00;91213.16;;;7.60;52.46
83896;BME280;74045;42.812;74.638;2024-03-08T05:19:26;91233.06;;;7.69;52.41
83896;BME280;74045;42.812;74.638;2024-03-08T05:21:52;91215.00;;;7.67;52.35
83896;BME280;74045;42.812;74.638;2024-03-08T05:24:18;91216.50;;;7.75;52.62
83896;BME280;74045;42.812;74.638;2024-03-08T05:26:44;91217.22;;;7.83;53.19
83896;BME280;74045;42.812;74.638;2024-03-08T05:29:10;91196.22;;;7.79;52.92
83896;BME280;74045;42.812;74.638;2024-03-08T05:31:50;91192.78;;;7.93;52.71
83896;BME280;74045;42.812;74.638;2024-03-08T05:34:19;91202.50;;;8.03;51.62
83896;BME280;74045;42.812;74.638;2024-03-08T05:36:46;91204.75;;;8.05;51.12
83896;BME280;74045;42.812;74.638;2024-03-08T05:39:13;91211.91;;;8.04;50.95
83896;BME280;74045;42.812;74.638;2024-03-08T05:41:39;91220.50;;;8.08;50.92
83896;BME280;74045;42.812;74.638;2024-03-08T05:44:06;91218.25;;;8.11;51.00
83896;BME280;74045;42.812;74.638;2024-03-08T05:46:32;91213.78;;;8.00;51.16
83896;BME280;74045;42.812;74.638;2024-03-08T05:48:57;91217.13;;;8.12;51.26
83896;BME280;74045;42.812;74.638;2024-03-08T05:51:33;91216.00;;;8.13;51.71
83896;BME280;74045;42.812;74.638;2024-03-08T05:54:02;91147.03;;;7.69;51.98
83896;BME280;74045;42.812;74.638;2024-03-08T05:56:32;91210.69;;;8.20;52.06
83896;BME280;74045;42.812;74.638;2024-03-08T05:58:58;91204.66;;;8.23;52.32
83896;BME280;74045;42.812;74.638;2024-03-08T06:01:24;91207.22;;;8.37;51.73
83896;BME280;74045;42.812;74.638;2024-03-08T06:03:54;91212.84;;;8.46;51.31
83896;BME280;74045;42.812;74.638;2024-03-08T06:06:24;91203.75;;;8.58;51.92
83896;BME280;74045;42.812;74.638;2024-03-08T06:08:50;91191.72;;;8.54;50.79
83896;BME280;74045;42.812;74.638;2024-03-08T06:11:17;91204.47;;;8.62;51.21
83896;BME280;74045;42.812;74.638;2024-03-08T06:13:44;91207.13;;;8.59;51.16
83896;BME280;74045;42.812;74.638;2024-03-08T06:16:10;91210.84;;;8.65;51.34
83896;BME280;74045;42.812;74.638;2024-03-08T06:18:36;91211.59;;;8.69;51.63
83896;BME280;74045;42.812;74.638;2024-03-08T06:21:04;91204.84;;;8.64;51.86
83896;BME280;74045;42.812;74.638;2024-03-08T06:23:37;91217.19;;;8.71;51.75
83896;BME280;74045;42.812;74.638;2024-03-08T06:26:04;91201.47;;;8.64;51.82
83896;BME280;74045;42.812;74.638;2024-03-08T06:28:30;91207.03;;;8.73;51.20
83896;BME280;74045;42.812;74.638;2024-03-08T06:31:01;91184.88;;;8.67;51.29
83896;BME280;74045;42.812;74.638;2024-03-08T06:33:27;91193.88;;;8.77;51.63
83896;BME280;74045;42.812;74.638;2024-03-08T06:35:53;91193.81;;;8.80;51.17
83896;BME280;74045;42.812;74.638;2024-03-08T06:38:25;91193.03;;;8.87;51.66
83896;BME280;74045;42.812;74.638;2024-03-08T06:40:52;91125.66;;;8.41;51.99
83896;BME280;74045;42.812;74.638;2024-03-08T06:43:18;91197.44;;;9.01;51.69
83896;BME280;74045;42.812;74.638;2024-03-08T06:45:45;91120.25;;;8.59;52.17
83896;BME280;74045;42.812;74.638;2024-03-08T06:48:20;91204.81;;;9.20;51.48
83896;BME280;74045;42.812;74.638;2024-03-08T06:50:46;91200.28;;;9.21;51.24
83896;BME280;74045;42.812;74.638;2024-03-08T06:53:15;91198.78;;;9.19;51.65
83896;BME280;74045;42.812;74.638;2024-03-08T06:55:41;91189.78;;;9.17;50.82
83896;BME280;74045;42.812;74.638;2024-03-08T06:58:07;91189.00;;;9.20;51.01
83896;BME280;74045;42.812;74.638;2024-03-08T07:00:33;91188.22;;;9.23;50.75
83896;BME280;74045;42.812;74.638;2024-03-08T07:02:59;91183.00;;;9.16;50.16
83896;BME280;74045;42.812;74.638;2024-03-08T07:05:30;91187.19;;;9.13;50.14
83896;BME280;74045;42.812;74.638;2024-03-08T07:07:58;91191.34;;;9.11;49.86
83896;BME280;74045;42.812;74.638;2024-03-08T07:10:23;91196.53;;;9.18;50.17
83896;BME280;74045;42.812;74.638;2024-03-08T07:12:52;91180.78;;;9.11;49.91
83896;BME280;74045;42.812;74.638;2024-03-08T07:15:19;91177.06;;;9.08;50.35
83896;BME280;74045;42.812;74.638;2024-03-08T07:17:49;91183.78;;;9.13;49.88
83896;BME280;74045;42.812;74.638;2024-03-08T07:20:17;91180.06;;;9.07;49.92
83896;BME280;74045;42.812;74.638;2024-03-08T07:22:45;91180.72;;;9.18;49.98
83896;BME280;74045;42.812;74.638;2024-03-08T07:25:14;91184.50;;;9.17;49.64
83896;BME280;74045;42.812;74.638;2024-03-08T07:27:55;91195.00;;;9.21;49.55
83896;BME280;74045;42.812;74.638;2024-03-08T07:30:25;91203.97;;;9.30;48.66
83896;BME280;74045;42.812;74.638;2024-03-08T07:33:09;91193.44;;;9.27;49.25
83896;BME280;74045;42.812;74.638;2024-03-08T07:35:38;91181.78;;;9.24;49.16
83896;BME280;74045;42.812;74.638;2024-03-08T07:38:05;91122.34;;;8.78;48.90
83896;BME280;74045;42.812;74.638;2024-03-08T07:40:32;91183.00;;;9.16;48.95
83896;BME280;74045;42.812;74.638;2024-03-08T07:42:58;91178.88;;;9.15;48.82
83896;BME280;74045;42.812;74.638;2024-03-08T07:45:24;91192.22;;;9.38;48.90
83896;BME280;74045;42.812;74.638;2024-03-08T07:47:49;91201.16;;;9.48;48.79
83896;BME280;74045;42.812;74.638;2024-03-08T07:50:16;91128.16;;;9.04;48.74
83896;BME280;74045;42.812;74.638;2024-03-08T07:52:42;91193.94;;;9.56;48.73
83896;BME280;74045;42.812;74.638;2024-03-08T07:55:08;91183.50;;;9.45;48.28
83896;BME280;74045;42.812;74.638;2024-03-08T07:57:35;91187.94;;;9.52;48.43
83896;BME280;74045;42.812;74.638;2024-03-08T08:00:07;91206.81;;;9.50;48.24
83896;BME280;74045;42.812;74.638;2024-03-08T08:02:34;91185.09;;;9.35;48.63
83896;BME280;74045;42.812;74.638;2024-03-08T08:05:01;91129.28;;;9.03;48.28
83896;BME280;74045;42.812;74.638;2024-03-08T08:07:26;91197.31;;;9.56;48.24
83896;BME280;74045;42.812;74.638;2024-03-08T08:09:53;91197.97;;;9.68;48.20
83896;BME280;74045;42.812;74.638;2024-03-08T08:12:19;91201.19;;;9.82;47.80
83896;BME280;74045;42.812;74.638;2024-03-08T08:14:45;91171.78;;;9.84;47.30
83896;BME280;74045;42.812;74.638;2024-03-08T08:17:12;91129.69;;;9.73;47.56
83896;BME280;74045;42.812;74.638;2024-03-08T08:19:37;91200.47;;;10.13;47.97
83896;BME280;74045;42.812;74.638;2024-03-08T08:22:04;91178.84;;;9.91;47.21
83896;BME280;74045;42.812;74.638;2024-03-08T08:24:30;91199.47;;;10.03;46.90
83896;BME280;74045;42.812;74.638;2024-03-08T08:26:55;91187.19;;;9.85;47.08
83896;BME280;74045;42.812;74.638;2024-03-08T08:29:21;91202.25;;;9.89;47.44
83896;BME280;74045;42.812;74.638;2024-03-08T08:31:48;91207.19;;;9.86;48.21
83896;BME280;74045;42.812;74.638;2024-03-08T08:34:16;91205.34;;;9.83;47.99
83896;BME280;74045;42.812;74.638;2024-03-08T08:36:44;91211.00;;;9.82;48.73
83896;BME280;74045;42.812;74.638;2024-03-08T08:39:10;91197.22;;;9.67;48.13
83896;BME280;74045;42.812;74.638;2024-03-08T08:41:39;91194.94;;;9.69;48.16
83896;BME280;74045;42.812;74.638;2024-03-08T08:44:07;91199.81;;;9.71;48.07
83896;BME280;74045;42.812;74.638;2024-03-08T08:46:38;91179.00;;;9.42;48.26
83896;BME280;74045;42.812;74.638;2024-03-08T08:49:05;91206.06;;;9.46;48.89
83896;BME280;74045;42.812;74.638;2024-03-08T08:51:32;91210.28;;;9.40;48.25
83896;BME280;74045;42.812;74.638;2024-03-08T08:53:59;91125.28;;;8.87;48.46
83896;BME280;74045;42.812;74.638;2024-03-08T08:56:24;91148.44;;;9.10;48.91
83896;BME280;74045;42.812;74.638;2024-03-08T08:58:51;91207.41;;;9.65;48.42
83896;BME280;74045;42.812;74.638;2024-03-08T09:01:19;91210.25;;;9.81;47.07
83896;BME280;74045;42.812;74.638;2024-03-08T09:03:45;91210.03;;;10.03;46.04
83896;BME280;74045;42.812;74.638;2024-03-08T09:06:12;91216.97;;;10.20;45.71
83896;BME280;74045;42.812;74.638;2024-03-08T09:08:39;91136.28;;;9.89;45.32
83896;BME280;74045;42.812;74.638;2024-03-08T09:11:04;91138.59;;;9.86;44.68
83896;BME280;74045;42.812;74.638;2024-03-08T09:13:31;91223.59;;;10.36;44.30
83896;BME280;74045;42.812;74.638;2024-03-08T09:15:56;91190.16;;;10.22;45.17
83896;BME280;74045;42.812;74.638;2024-03-08T09:18:22;91199.53;;;10.30;45.75
83896;BME280;74045;42.812;74.638;2024-03-08T09:20:49;91208.78;;;10.45;45.81
83896;BME280;74045;42.812;74.638;2024-03-08T09:23:19;91197.56;;;10.38;44.95
83896;BME280;74045;42.812;74.638;2024-03-08T09:25:45;91218.53;;;10.48;45.59
83896;BME280;74045;42.812;74.638;2024-03-08T09:28:12;91221.63;;;10.43;45.20
83896;BME280;74045;42.812;74.638;2024-03-08T09:30:38;91188.50;;;10.04;44.75
83896;BME280;74045;42.812;74.638;2024-03-08T09:33:05;91226.50;;;10.11;44.41
83896;BME280;74045;42.812;74.638;2024-03-08T09:35:31;91230.50;;;9.92;44.79
83896;BME280;74045;42.812;74.638;2024-03-08T09:37:57;91239.19;;;9.89;45.45
83896;BME280;74045;42.812;74.638;2024-03-08T09:40:24;91234.41;;;9.76;45.75
83896;BME280;74045;42.812;74.638;2024-03-08T09:42:51;91218.03;;;9.58;45.78
83896;BME280;74045;42.812;74.638;2024-03-08T09:45:20;91221.78;;;9.57;45.69
83896;BME280;74045;42.812;74.638;2024-03-08T09:47:47;91164.25;;;9.07;45.89
83896;BME280;74045;42.812;74.638;2024-03-08T09:50:14;91223.06;;;9.41;45.54
83896;BME280;74045;42.812;74.638;2024-03-08T09:52:48;91238.47;;;9.47;45.97
83896;BME280;74045;42.812;74.638;2024-03-08T09:55:15;91252.09;;;9.41;46.00
83896;BME280;74045;42.812;74.638;2024-03-08T09:57:43;91260.41;;;9.36;46.38
83896;BME280;74045;42.812;74.638;2024-03-08T10:00:29;91242.41;;;9.28;46.50
83896;BME280;74045;42.812;74.638;2024-03-08T10:03:00;91260.31;;;9.44;46.59
83896;BME280;74045;42.812;74.638;2024-03-08T10:05:26;91247.25;;;9.33;46.68
83896;BME280;74045;42.812;74.638;2024-03-08T10:07:52;91267.41;;;9.54;46.85
83896;BME280;74045;42.812;74.638;2024-03-08T10:10:18;91266.22;;;9.62;46.51
83896;BME280;74045;42.812;74.638;2024-03-08T10:12:45;91257.59;;;9.58;46.67
83896;BME280;74045;42.812;74.638;2024-03-08T10:15:11;91273.69;;;9.67;46.53
83896;BME280;74045;42.812;74.638;2024-03-08T10:17:38;91205.50;;;9.24;46.65
83896;BME280;74045;42.812;74.638;2024-03-08T10:20:16;91272.03;;;9.84;46.54
83896;BME280;74045;42.812;74.638;2024-03-08T10:22:43;91281.06;;;9.86;47.09
83896;BME280;74045;42.812;74.638;2024-03-08T10:25:11;91279.53;;;9.89;47.20
83896;BME280;74045;42.812;74.638;2024-03-08T10:27:40;91278.00;;;9.92;47.57
83896;BME280;74045;42.812;74.638;2024-03-08T10:30:15;91282.75;;;10.04;47.39
83896;BME280;74045;42.812;74.638;2024-03-08T10:32:45;91269.69;;;9.93;46.75
83896;BME280;74045;42.812;74.638;2024-03-08T10:35:12;91262.56;;;9.90;46.56
83896;BME280;74045;42.812;74.638;2024-03-08T10:37:49;91280.81;;;10.08;46.51
83896;BME280;74045;42.812;74.638;2024-03-08T10:40:29;91272.22;;;10.04;46.90
83896;BME280;74045;42.812;74.638;2024-03-08T10:42:57;91287.19;;;10.14;47.41
83896;BME280;74045;42.812;74.638;2024-03-08T10:48:26;91273.91;;;10.21;47.22
83896;BME280;74045;42.812;74.638;2024-03-08T10:51:04;91294.19;;;10.32;47.69
83896;BME280;74045;42.812;74.638;2024-03-08T10:53:30;91291.94;;;10.30;47.80
83896;BME280;74045;42.812;74.638;2024-03-08T10:55:58;91289.72;;;10.28;47.26
83896;BME280;74045;42.812;74.638;2024-03-08T10:58:26;91284.16;;;10.16;46.59
83896;BME280;74045;42.812;74.638;2024-03-08T11:00:57;91288.78;;;10.04;47.46
83896;BME280;74045;42.812;74.638;2024-03-08T11:09:29;91297.91;;;9.58;47.71
83896;BME280;74045;42.812;74.638;2024-03-08T11:12:20;91288.91;;;9.49;48.08
83896;BME280;74045;42.812;74.638;2024-03-08T11:14:48;91296.56;;;9.36;48.71
83896;BME280;74045;42.812;74.638;2024-03-08T11:17:40;91291.28;;;9.36;48.40
83896;BME280;74045;42.812;74.638;2024-03-08T11:20:11;91297.34;;;9.29;48.94
83896;BME280;74045;42.812;74.638;2024-03-08T11:23:03;91291.75;;;9.27;49.00
83896;BME280;74045;42.812;74.638;2024-03-08T11:25:39;91304.19;;;9.23;49.11
83896;BME280;74045;42.812;74.638;2024-03-08T11:28:14;91302.69;;;9.18;49.64
83896;BME280;74045;42.812;74.638;2024-03-08T11:31:21;91309.16;;;9.14;49.20
83896;BME280;74045;42.812;74.638;2024-03-08T11:33:35;91235.31;;;8.62;49.60
83896;BME280;74045;42.812;74.638;2024-03-08T11:38:43;91312.22;;;9.05;49.94
83896;BME280;74045;42.812;74.638;2024-03-08T11:41:09;91306.59;;;9.00;50.41
83896;BME280;74045;42.812;74.638;2024-03-08T11:43:40;91301.03;;;8.87;50.39
83896;BME280;74045;42.812;74.638;2024-03-08T11:46:10;91238.81;;;8.44;50.73
83896;BME280;74045;42.812;74.638;2024-03-08T11:48:39;91312.72;;;8.82;51.17
83896;BME280;74045;42.812;74.638;2024-03-08T11:51:16;91285.34;;;8.62;51.22
83896;BME280;74045;42.812;74.638;2024-03-08T11:53:44;91287.59;;;8.67;51.27
83896;BME280;74045;42.812;74.638;2024-03-08T11:56:11;91309.75;;;8.73;51.62
83896;BME280;74045;42.812;74.638;2024-03-08T11:58:38;91258.00;;;8.34;51.60
83896;BME280;74045;42.812;74.638;2024-03-08T12:01:07;91309.41;;;8.67;52.29
83896;BME280;74045;42.812;74.638;2024-03-08T12:03:34;91307.53;;;8.64;51.95
83896;BME280;74045;42.812;74.638;2024-03-08T12:06:01;91305.28;;;8.59;52.18
83896;BME280;74045;42.812;74.638;2024-03-08T12:08:30;91309.09;;;8.55;52.36
83896;BME280;74045;42.812;74.638;2024-03-08T12:10:57;91234.47;;;7.98;52.59
83896;BME280;74045;42.812;74.638;2024-03-08T12:13:30;91323.41;;;8.46;52.58
83896;BME280;74045;42.812;74.638;2024-03-08T12:16:00;91306.50;;;8.37;53.47
83896;BME280;74045;42.812;74.638;2024-03-08T12:18:33;91313.69;;;8.29;54.17
83896;BME280;74045;42.812;74.638;2024-03-08T12:21:07;91303.19;;;8.15;54.19
83896;BME280;74045;42.812;74.638;2024-03-08T12:24:08;91312.22;;;8.14;54.33
83896;BME280;74045;42.812;74.638;2024-03-08T12:26:38;91289.34;;;7.85;55.29
83896;BME280;74045;42.812;74.638;2024-03-08T12:29:23;91307.03;;;7.85;54.74
83896;BME280;74045;42.812;74.638;2024-03-08T12:31:58;91314.53;;;7.83;55.83
83896;BME280;74045;42.812;74.638;2024-03-08T12:34:26;91307.78;;;7.71;56.16
83896;BME280;74045;42.812;74.638;2024-03-08T12:36:58;91319.06;;;7.68;55.92
83896;BME280;74045;42.812;74.638;2024-03-08T12:39:24;91311.94;;;7.54;56.47
83896;BME280;74045;42.812;74.638;2024-03-08T12:41:55;91336.34;;;7.44;56.79
83896;BME280;74045;42.812;74.638;2024-03-08T12:44:22;91315.31;;;7.26;57.13
83896;BME280;74045;42.812;74.638;2024-03-08T12:46:48;91319.44;;;7.16;57.56
83896;BME280;74045;42.812;74.638;2024-03-08T12:49:14;91321.31;;;7.09;57.67
83896;BME280;74045;42.812;74.638;2024-03-08T12:51:44;91310.38;;;6.89;58.69
83896;BME280;74045;42.812;74.638;2024-03-08T12:54:10;91254.44;;;6.42;59.04
83896;BME280;74045;42.812;74.638;2024-03-08T12:56:36;91233.03;;;6.22;59.53
83896;BME280;74045;42.812;74.638;2024-03-08T12:59:07;91336.63;;;6.67;60.63
83896;BME280;74045;42.812;74.638;2024-03-08T13:01:34;91330.59;;;6.56;60.95
83896;BME280;74045;42.812;74.638;2024-03-08T13:04:03;91323.41;;;6.46;61.23
83896;BME280;74045;42.812;74.638;2024-03-08T13:06:29;91320.00;;;6.38;61.16
83896;BME280;74045;42.812;74.638;2024-03-08T13:08:56;91322.59;;;6.27;61.77
83896;BME280;74045;42.812;74.638;2024-03-08T13:11:23;91302.63;;;6.01;61.63
83896;BME280;74045;42.812;74.638;2024-03-08T13:13:49;91248.81;;;5.56;61.53
83896;BME280;74045;42.812;74.638;2024-03-08T13:16:15;91335.22;;;6.04;61.87
83896;BME280;74045;42.812;74.638;2024-03-08T13:18:41;91309.59;;;5.79;62.03